Élőkép

Információk

Albatrosz Repülő Egyesület
8000 Székesfehérvár,
Radványi utca 6.

Adószám:
19092908-2-07

Bankszámla szám:
Budapest Bank
10102952-01361819-00000001

Telefon: +36 30 9598-897

Telephey: Börgönd repülőtér

Börgöndi repülõtér

LHBP METAR/TAF

[source: ADDS]
METAR
TAF LHBP 012300Z 0200/0224 32010KT 9999 FEW020 SCT083 BKN200 TEMPO 0200/0206 CAVOK BECMG 0207/0210 SCT038 SCT100 BKN180 BECMG 0214/0217 CAVOK TEMPO 0218/0224 02006KT TAF
TAF LHBP 012300Z 0200/0224 32010KT 9999 FEW020 SCT083 BKN200 TEMPO 0200/0206 CAVOK BECMG 0207/0210 SCT038 SCT100 BKN180 BECMG 0214/0217 CAVOK TEMPO 0218/0224 02006KT =
SR / SS: 04:09 / 17:25 UTC (Börgönd 2014-09-02)
Hungarian Chinese (Simplified) Croatian Czech English Finnish French German Hebrew Italian Japanese Polish Portuguese Romanian Russian Serbian Slovak Slovenian Spanish

Belépés tagoknak